AirNav   TITAN Aviation Fuels
 
 1325 users online  

30F Lakeview Airport
Lake Dallas, Texas, USA

GOING TO LAKE DALLAS?


FAA INFORMATION EFFECTIVE 20 MAY 2021

Location

FAA Identifier: 30F
Lat/Long: 33-07-53.0000N 097-00-51.1000W
33-07.883333N 097-00.851667W
33.1313889,-97.0141944
(estimated)
Elevation: 535 ft. / 163 m (estimated)
Variation: 07E (1985)
From city: 1 mile NE of LAKE DALLAS, TX
Time zone: UTC -5 (UTC -6 during Standard Time)
Zip code: 75065

Airport Operations

Airport use: Open to the public
Activation date: 03/1959
Control tower: no
ARTCC: FORT WORTH CENTER
FSS: FORT WORTH FLIGHT SERVICE STATION
NOTAMs facility: FTW (NOTAM-D service available)
Attendance: UNATNDD
Wind indicator: yes
Segmented circle: no

Airport Communications

CTAF: 122.9
WX ASOS at DTO (10 nm NW): 119.325 (940-383-8457)
WX AWOS-3 at ADS (13 nm SE): PHONE 972-386-4855
WX ASOS at DFW (14 nm S): PHONE 972-615-2608
WX ASOS at AFW (18 nm SW): PHONE 817-491-6188
WX ASOS at DAL (19 nm SE): PHONE 214-353-1551

Nearby radio navigation aids

VOR radial/distance  VOR name  Freq  Var
CVEr333/15.5COWBOY VOR/DME116.2006E
TTTr359/15.8MAVERICK VOR/DME113.1006E
FUZr024/16.7RANGER VORTAC115.7006E

 
NDB name  Hdg/Dist  Freq  Var  ID
PINCK131/12.925704EDT -.. -
MESQUITE305/31.124803EPQF .--. --.- ..-.

Airport Services

Parking: tiedowns
Bottled oxygen: NONE
Bulk oxygen: NONE

Runway Information

Runway 18L/36R

Dimensions: 2815 x 30 ft. / 858 x 9 m
Surface: asphalt, in poor condition
PAVEMENT UNEVEN WITH LOOSE STONES.
Weight bearing capacity: 
Single wheel: 4.0
RUNWAY 18L  RUNWAY 36R
Traffic pattern: leftleft
Obstructions: 25 ft. trees, 201 ft. from runway, 85 ft. right of centerline
15 FT TREES 60 FT DSTC, 125 FT RIGHT TO 85 FT RIGHT AT 199 DSTC.
22 ft. pole, 326 ft. from runway, 135 ft. left of centerline, 5:1 slope to clear
15 FT RD 168 FT DSTC ACROSS APCH.

Runway 18R/36L

Dimensions: 2600 x 75 ft. / 792 x 23 m
Surface: turf, in fair condition
RUNWAY 18R  RUNWAY 36L
Latitude: 33-08.096678N33-07.668668N
Longitude: 097-00.836512W097-00.868162W
Elevation: 534.0 ft.531.0 ft.
Traffic pattern: leftleft
Runway heading: 177 magnetic, 184 true357 magnetic, 004 true
Obstructions: 40 ft. trees, 400 ft. from runway, 140 ft. right of centerline, 10:1 slope to clear22 ft. pline, 326 ft. from runway, 25 ft. left of centerline, 14:1 slope to clear

Airport Ownership and Management from official FAA records

Ownership: Publicly-owned
Owner: U S GOVT & SQUIER FAMILY
PO BOX 1026
LAKE DALLAS, TX 75065
Phone 214-850-8180
ARPT PROPERTY SOUTH FM S-TWY LEASED FROM U.S. GOVT-CORPS OF ENGINEERS BY LAKE DALLAS BOAT WORKS & LAKEVIEW AIRPORT; BLDG AREA & RY NORTH OF S-TWY OWNED BY LAKEVIEW ARPT.
Manager: RANDY SQUIER
PO BOX 356
LAKE DALLAS, TX 75065
Phone 214-850-8180

Airport Operational Statistics

Aircraft based on the field: 64
Single engine airplanes: 63
Ultralights: 1
    
Aircraft operations: avg 96/week *
80% local general aviation
20% transient general aviation
* for 12-month period ending 04 April 2019

Additional Remarks

NO TGL PERMITTED.
ARPT CLSD TO TRANSIENT STUDENTS.
BIRDS ON AND INVOF ARPT.
POWERED PARACHUTES AND BALLOONS PROHIBITED.
RWY 18L/36R LAKE 350 FT FM NORTH END OF RY, 170 FT FM SOUTH END. PORTIONS OF RY MAY BE UNDER WATER DURING HEAVY RAINS.
GATE LOCKED 24 HRS.
FOR CD CTC REGIONAL APCH AT 972-615-2799.
RWY 36 30 FT TREES, 30-65 FT R, PARALLEL TO RWY.

Instrument Procedures

There are no published instrument procedures at 30F.

Some nearby airports with instrument procedures:

KDTO - Denton Enterprise Airport (10 nm NW)
KADS - Addison Airport (13 nm SE)
KDFW - Dallas-Fort Worth International Airport (14 nm S)
KAFW - Fort Worth Alliance Airport (18 nm SW)
KDAL - Dallas Love Field Airport (19 nm SE)
 
Loc | Ops | Rwys | IFR | FBO | Links
Com | Nav | Svcs | Stats | Notes

City of Fort Worth
 
Area around 30F (Lakeview Airport)
 
Road maps at: MapQuest Bing Google
 
Aerial photo
WARNING: Photo may not be current or correct
Aerial photo of 30F (Lakeview Airport)
Photo by Mike Mee
Taken in the Summer of 2017
looking south.

Do you have a better or more recent aerial photo of Lakeview Airport that you would like to share? If so, please send us your photo.

 
Sectional chart

 
Airport distance calculator
Flying to Lakeview Airport? Find the distance to fly.

From to 30F

Sunrise and sunset
Times for 14-Jun-2021
 Local
(UTC-5)
 Zulu
(UTC)
Morning civil twilight05:5110:51
Sunrise06:2011:20
Sunset20:3701:37
Evening civil twilight21:0602:06

Current date and time
Zulu (UTC)  14-Jun-2021 21:59:23
Local (UTC-5)  14-Jun-2021 16:59:23
 
METAR
KDTO 
10nm NW 
142153Z 02010KT 10SM CLR 33/24 A2996 RMK AO2 SLP135 T03330239
KDFW 
14nm S 
142153Z 04007KT 10SM FEW055 SCT075 SCT150 BKN180 OVC300 36/21 A2993 RMK AO2 SLP124 CB SHRA DSNT SE-SW MOV S T03560211
KADS 
14nm SE 
142147Z 07007KT 13SM SCT050 36/17 A2995
KAFW 
18nm SW 
142153Z 05011KT 10SM FEW045 SCT070 SCT200 BKN300 36/22 A2994 RMK AO2 SLP121 CB DSNT SE-SW MOV SW TCU DSNT SE-SW T03560217
KDAL 
19nm SE 
142153Z 06009G15KT 040V110 10SM FEW055TCU FEW070 BKN300 36/21 A2993 RMK AO2 PK WND 23026/2107 SLP126 TCU SW-W T03560206
TAF
KDFW 
14nm S 
141730Z 1418/1524 05005KT P6SM VCTS SCT040CB FM142300 04003KT P6SM SCT180
KAFW 
18nm SW 
141730Z 1418/1518 05005KT P6SM VCTS SCT040CB FM142300 02004KT P6SM SCT180
KDAL 
19nm SE 
141730Z 1418/1518 06005KT P6SM VCTS SCT040CB FM142300 04004KT P6SM SCT180
NOTAMs
Click for the latest NOTAMs
NOTAMs are issued by the DoD/FAA and will open in a separate window not controlled by AirNav.

 

 
 

Would you like to see your business listed on this page?

 If your business provides an interesting product or service to pilots, flight crews, aircraft, or users of the Lakeview Airport, you should consider listing it here.  To start the listing process, click on the button below
 
Add a business
 

Other Pages about Lakeview Airport

Update a link
 
Copyright © AirNav, LLC. All rights reserved. Privacy Policy  Contact